Virton, Belgium
Current Conditions -  °F | °C
As of 8:50 PM on Friday 24 Oct 2014 (Local Time) from ELLX Reporting Station
Clear Clear  
Wind Chill: 50°   Ceiling: Unl
Heat Index: 50°   Visibility: 6mi
Dew Point: 45°   Wind: 3mph
Humidity: 82%   Direction: NA
Pressure: 30.09"   Gusts: NA
Location:  49.57°N, 5.53°E
Report Text: ELLX 241850Z VRB03KT CAVOK 10/07 Q1019 NOSIG
Loading
Personal Weather Stations






























Interactive Weather Map
Tropical Storm Tracking
New forecast layout! Learn more

10-Day Weather Forecast

Advertisements
Track Severe Weather on mobile